sensor_id;sensor_type;location;lat;lon;timestamp;temperature;humidity
16200;DHT22;8207;52.494;4.654;2022-11-15T00:01:33;7.00;99.90
16200;DHT22;8207;52.494;4.654;2022-11-15T00:03:59;7.00;99.90
16200;DHT22;8207;52.494;4.654;2022-11-15T00:06:28;7.00;99.90
16200;DHT22;8207;52.494;4.654;2022-11-15T00:08:57;7.10;99.90
16200;DHT22;8207;52.494;4.654;2022-11-15T00:11:24;7.10;99.90
16200;DHT22;8207;52.494;4.654;2022-11-15T00:13:51;7.10;99.90
16200;DHT22;8207;52.494;4.654;2022-11-15T00:16:21;7.10;99.90
16200;DHT22;8207;52.494;4.654;2022-11-15T00:18:48;7.10;99.90
16200;DHT22;8207;52.494;4.654;2022-11-15T00:21:15;7.10;99.90
16200;DHT22;8207;52.494;4.654;2022-11-15T00:23:43;7.10;99.90
16200;DHT22;8207;52.494;4.654;2022-11-15T00:26:12;7.10;99.90
16200;DHT22;8207;52.494;4.654;2022-11-15T00:28:40;7.10;99.90
16200;DHT22;8207;52.494;4.654;2022-11-15T00:31:14;7.20;99.90
16200;DHT22;8207;52.494;4.654;2022-11-15T00:33:43;7.20;99.90
16200;DHT22;8207;52.494;4.654;2022-11-15T00:36:10;7.10;99.90
16200;DHT22;8207;52.494;4.654;2022-11-15T00:38:38;7.10;99.90
16200;DHT22;8207;52.494;4.654;2022-11-15T00:41:07;7.20;99.90
16200;DHT22;8207;52.494;4.654;2022-11-15T00:43:34;7.20;99.90
16200;DHT22;8207;52.494;4.654;2022-11-15T00:46:01;7.20;99.90
16200;DHT22;8207;52.494;4.654;2022-11-15T00:48:28;7.20;99.90
16200;DHT22;8207;52.494;4.654;2022-11-15T00:50:55;7.20;99.90
16200;DHT22;8207;52.494;4.654;2022-11-15T00:53:22;7.30;99.90
16200;DHT22;8207;52.494;4.654;2022-11-15T00:55:49;7.30;99.90
16200;DHT22;8207;52.494;4.654;2022-11-15T00:58:17;7.30;99.90
16200;DHT22;8207;52.494;4.654;2022-11-15T01:00:44;7.30;99.90
16200;DHT22;8207;52.494;4.654;2022-11-15T01:03:11;7.30;99.90
16200;DHT22;8207;52.494;4.654;2022-11-15T01:05:38;7.40;99.90
16200;DHT22;8207;52.494;4.654;2022-11-15T01:08:05;7.40;99.90
16200;DHT22;8207;52.494;4.654;2022-11-15T01:10:32;7.40;99.90
16200;DHT22;8207;52.494;4.654;2022-11-15T01:12:58;7.40;99.90
16200;DHT22;8207;52.494;4.654;2022-11-15T01:15:26;7.40;99.90
16200;DHT22;8207;52.494;4.654;2022-11-15T01:17:53;7.40;99.90
16200;DHT22;8207;52.494;4.654;2022-11-15T01:20:21;7.40;99.90
16200;DHT22;8207;52.494;4.654;2022-11-15T01:22:47;7.40;99.90
16200;DHT22;8207;52.494;4.654;2022-11-15T01:25:14;7.50;99.90
16200;DHT22;8207;52.494;4.654;2022-11-15T01:27:41;7.50;99.90
16200;DHT22;8207;52.494;4.654;2022-11-15T01:30:09;7.50;99.90
16200;DHT22;8207;52.494;4.654;2022-11-15T01:32:37;7.50;99.90
16200;DHT22;8207;52.494;4.654;2022-11-15T01:35:04;7.50;99.90
16200;DHT22;8207;52.494;4.654;2022-11-15T01:37:31;7.50;99.90
16200;DHT22;8207;52.494;4.654;2022-11-15T01:39:58;7.50;99.90
16200;DHT22;8207;52.494;4.654;2022-11-15T01:42:25;7.50;99.90
16200;DHT22;8207;52.494;4.654;2022-11-15T01:44:52;7.50;99.90
16200;DHT22;8207;52.494;4.654;2022-11-15T01:47:22;7.50;99.90
16200;DHT22;8207;52.494;4.654;2022-11-15T01:49:55;7.60;99.90
16200;DHT22;8207;52.494;4.654;2022-11-15T01:52:26;7.60;99.90
16200;DHT22;8207;52.494;4.654;2022-11-15T01:54:58;7.60;99.90
16200;DHT22;8207;52.494;4.654;2022-11-15T01:57:25;7.60;99.90
16200;DHT22;8207;52.494;4.654;2022-11-15T01:59:52;7.60;99.90
16200;DHT22;8207;52.494;4.654;2022-11-15T02:02:19;7.60;99.90
16200;DHT22;8207;52.494;4.654;2022-11-15T02:04:47;7.60;99.90
16200;DHT22;8207;52.494;4.654;2022-11-15T02:07:17;7.60;99.90
16200;DHT22;8207;52.494;4.654;2022-11-15T02:09:46;7.60;99.90
16200;DHT22;8207;52.494;4.654;2022-11-15T02:12:16;7.60;99.90
16200;DHT22;8207;52.494;4.654;2022-11-15T02:14:47;7.60;99.90
16200;DHT22;8207;52.494;4.654;2022-11-15T02:17:34;7.60;99.90
16200;DHT22;8207;52.494;4.654;2022-11-15T02:20:30;7.60;99.90
16200;DHT22;8207;52.494;4.654;2022-11-15T02:23:27;7.60;99.90
16200;DHT22;8207;52.494;4.654;2022-11-15T02:26:11;7.60;99.90
16200;DHT22;8207;52.494;4.654;2022-11-15T02:28:48;7.60;99.90
16200;DHT22;8207;52.494;4.654;2022-11-15T02:31:25;7.70;99.90
16200;DHT22;8207;52.494;4.654;2022-11-15T02:33:59;7.70;99.90
16200;DHT22;8207;52.494;4.654;2022-11-15T02:36:35;7.60;99.90
16200;DHT22;8207;52.494;4.654;2022-11-15T02:39:10;7.70;99.90
16200;DHT22;8207;52.494;4.654;2022-11-15T02:41:44;7.60;99.90
16200;DHT22;8207;52.494;4.654;2022-11-15T02:44:19;7.70;99.90
16200;DHT22;8207;52.494;4.654;2022-11-15T02:46:51;7.70;99.90
16200;DHT22;8207;52.494;4.654;2022-11-15T02:49:37;7.70;99.90
16200;DHT22;8207;52.494;4.654;2022-11-15T02:52:05;7.70;99.90
16200;DHT22;8207;52.494;4.654;2022-11-15T02:54:33;7.70;99.90
16200;DHT22;8207;52.494;4.654;2022-11-15T02:57:02;7.70;99.90
16200;DHT22;8207;52.494;4.654;2022-11-15T03:00:03;7.70;99.90
16200;DHT22;8207;52.494;4.654;2022-11-15T03:02:49;7.70;99.90
16200;DHT22;8207;52.494;4.654;2022-11-15T03:05:25;7.80;99.90
16200;DHT22;8207;52.494;4.654;2022-11-15T03:08:01;7.80;99.90
16200;DHT22;8207;52.494;4.654;2022-11-15T03:10:36;7.80;99.90
16200;DHT22;8207;52.494;4.654;2022-11-15T03:13:16;7.80;99.90
16200;DHT22;8207;52.494;4.654;2022-11-15T03:15:51;7.80;99.90
16200;DHT22;8207;52.494;4.654;2022-11-15T03:18:28;7.80;99.90
16200;DHT22;8207;52.494;4.654;2022-11-15T03:20:58;7.90;99.90
16200;DHT22;8207;52.494;4.654;2022-11-15T03:23:26;7.90;99.90
16200;DHT22;8207;52.494;4.654;2022-11-15T03:25:56;8.00;99.90
16200;DHT22;8207;52.494;4.654;2022-11-15T03:28:28;8.00;99.90
16200;DHT22;8207;52.494;4.654;2022-11-15T03:30:59;8.00;99.90
16200;DHT22;8207;52.494;4.654;2022-11-15T03:33:51;8.00;99.90
16200;DHT22;8207;52.494;4.654;2022-11-15T03:36:21;8.10;99.90
16200;DHT22;8207;52.494;4.654;2022-11-15T03:38:48;8.10;99.90
16200;DHT22;8207;52.494;4.654;2022-11-15T03:41:19;8.10;99.90
16200;DHT22;8207;52.494;4.654;2022-11-15T03:43:53;8.20;99.90
16200;DHT22;8207;52.494;4.654;2022-11-15T03:46:25;8.20;99.90
16200;DHT22;8207;52.494;4.654;2022-11-15T03:48:59;8.20;99.90
16200;DHT22;8207;52.494;4.654;2022-11-15T03:51:29;8.30;99.90
16200;DHT22;8207;52.494;4.654;2022-11-15T03:53:56;8.30;99.90
16200;DHT22;8207;52.494;4.654;2022-11-15T03:56:23;8.30;99.90
16200;DHT22;8207;52.494;4.654;2022-11-15T03:58:50;8.40;99.90
16200;DHT22;8207;52.494;4.654;2022-11-15T04:01:17;8.40;99.90
16200;DHT22;8207;52.494;4.654;2022-11-15T04:03:44;8.40;99.90
16200;DHT22;8207;52.494;4.654;2022-11-15T04:06:12;8.40;99.90
16200;DHT22;8207;52.494;4.654;2022-11-15T04:08:39;8.50;99.90
16200;DHT22;8207;52.494;4.654;2022-11-15T04:11:06;8.50;99.90
16200;DHT22;8207;52.494;4.654;2022-11-15T04:13:32;8.60;99.90
16200;DHT22;8207;52.494;4.654;2022-11-15T04:15:59;8.60;99.90
16200;DHT22;8207;52.494;4.654;2022-11-15T04:18:26;8.60;99.90
16200;DHT22;8207;52.494;4.654;2022-11-15T04:20:53;8.60;99.90
16200;DHT22;8207;52.494;4.654;2022-11-15T04:23:39;8.70;99.90
16200;DHT22;8207;52.494;4.654;2022-11-15T04:26:23;8.70;99.90
16200;DHT22;8207;52.494;4.654;2022-11-15T04:28:50;8.70;99.90
16200;DHT22;8207;52.494;4.654;2022-11-15T04:31:34;8.80;99.90
16200;DHT22;8207;52.494;4.654;2022-11-15T04:34:01;8.80;99.90
16200;DHT22;8207;52.494;4.654;2022-11-15T04:36:28;8.80;99.90
16200;DHT22;8207;52.494;4.654;2022-11-15T04:39:13;8.80;99.90
16200;DHT22;8207;52.494;4.654;2022-11-15T04:41:40;8.90;99.90
16200;DHT22;8207;52.494;4.654;2022-11-15T04:44:07;8.90;99.90
16200;DHT22;8207;52.494;4.654;2022-11-15T04:46:35;8.90;99.90
16200;DHT22;8207;52.494;4.654;2022-11-15T04:49:02;9.00;99.90
16200;DHT22;8207;52.494;4.654;2022-11-15T04:51:28;9.00;99.90
16200;DHT22;8207;52.494;4.654;2022-11-15T04:53:55;9.10;99.90
16200;DHT22;8207;52.494;4.654;2022-11-15T04:56:24;9.10;99.90
16200;DHT22;8207;52.494;4.654;2022-11-15T04:58:51;9.20;99.90
16200;DHT22;8207;52.494;4.654;2022-11-15T05:01:17;9.30;99.90
16200;DHT22;8207;52.494;4.654;2022-11-15T05:03:44;9.30;99.90
16200;DHT22;8207;52.494;4.654;2022-11-15T05:06:29;9.30;99.90
16200;DHT22;8207;52.494;4.654;2022-11-15T05:08:56;9.40;99.90
16200;DHT22;8207;52.494;4.654;2022-11-15T05:11:25;9.40;99.90
16200;DHT22;8207;52.494;4.654;2022-11-15T05:13:52;9.40;99.90
16200;DHT22;8207;52.494;4.654;2022-11-15T05:16:19;9.50;99.90
16200;DHT22;8207;52.494;4.654;2022-11-15T05:18:46;9.50;99.90
16200;DHT22;8207;52.494;4.654;2022-11-15T05:21:14;9.50;99.90
16200;DHT22;8207;52.494;4.654;2022-11-15T05:23:41;9.60;99.90
16200;DHT22;8207;52.494;4.654;2022-11-15T05:26:09;9.60;99.90
16200;DHT22;8207;52.494;4.654;2022-11-15T05:28:38;9.60;99.90
16200;DHT22;8207;52.494;4.654;2022-11-15T05:31:06;9.60;99.90
16200;DHT22;8207;52.494;4.654;2022-11-15T05:33:34;9.70;99.90
16200;DHT22;8207;52.494;4.654;2022-11-15T05:36:05;9.70;99.90
16200;DHT22;8207;52.494;4.654;2022-11-15T05:38:33;9.70;99.90
16200;DHT22;8207;52.494;4.654;2022-11-15T05:41:01;9.80;99.90
16200;DHT22;8207;52.494;4.654;2022-11-15T05:43:29;9.80;99.90
16200;DHT22;8207;52.494;4.654;2022-11-15T05:45:59;9.80;99.90
16200;DHT22;8207;52.494;4.654;2022-11-15T05:48:27;9.80;99.90
16200;DHT22;8207;52.494;4.654;2022-11-15T05:50:54;9.90;99.90
16200;DHT22;8207;52.494;4.654;2022-11-15T05:53:23;9.90;99.90
16200;DHT22;8207;52.494;4.654;2022-11-15T05:55:51;9.90;99.90
16200;DHT22;8207;52.494;4.654;2022-11-15T05:58:19;9.90;99.90
16200;DHT22;8207;52.494;4.654;2022-11-15T06:00:46;10.00;99.90
16200;DHT22;8207;52.494;4.654;2022-11-15T06:03:15;10.00;99.90
16200;DHT22;8207;52.494;4.654;2022-11-15T06:05:42;10.00;99.90
16200;DHT22;8207;52.494;4.654;2022-11-15T06:08:09;10.00;99.90
16200;DHT22;8207;52.494;4.654;2022-11-15T06:10:35;10.10;99.90
16200;DHT22;8207;52.494;4.654;2022-11-15T06:13:04;10.10;99.90
16200;DHT22;8207;52.494;4.654;2022-11-15T06:15:32;10.10;99.90
16200;DHT22;8207;52.494;4.654;2022-11-15T06:18:00;10.10;99.90
16200;DHT22;8207;52.494;4.654;2022-11-15T06:20:29;10.10;99.90
16200;DHT22;8207;52.494;4.654;2022-11-15T06:22:57;10.20;99.90
16200;DHT22;8207;52.494;4.654;2022-11-15T06:25:24;10.20;99.90
16200;DHT22;8207;52.494;4.654;2022-11-15T06:27:52;10.20;99.90
16200;DHT22;8207;52.494;4.654;2022-11-15T06:30:19;10.10;99.90
16200;DHT22;8207;52.494;4.654;2022-11-15T06:32:46;10.10;99.90
16200;DHT22;8207;52.494;4.654;2022-11-15T06:35:13;10.10;99.90
16200;DHT22;8207;52.494;4.654;2022-11-15T06:37:42;10.20;99.90
16200;DHT22;8207;52.494;4.654;2022-11-15T06:40:10;10.20;99.90
16200;DHT22;8207;52.494;4.654;2022-11-15T06:42:37;10.20;99.90
16200;DHT22;8207;52.494;4.654;2022-11-15T06:45:05;10.20;99.90
16200;DHT22;8207;52.494;4.654;2022-11-15T06:47:31;10.10;99.90
16200;DHT22;8207;52.494;4.654;2022-11-15T06:49:58;10.10;99.90
16200;DHT22;8207;52.494;4.654;2022-11-15T06:52:25;10.10;99.90
16200;DHT22;8207;52.494;4.654;2022-11-15T06:54:53;10.00;99.90
16200;DHT22;8207;52.494;4.654;2022-11-15T06:57:20;10.00;99.90
16200;DHT22;8207;52.494;4.654;2022-11-15T06:59:47;10.00;99.90
16200;DHT22;8207;52.494;4.654;2022-11-15T07:02:14;10.00;99.90
16200;DHT22;8207;52.494;4.654;2022-11-15T07:04:41;10.00;99.90
16200;DHT22;8207;52.494;4.654;2022-11-15T07:07:08;10.00;99.90
16200;DHT22;8207;52.494;4.654;2022-11-15T07:09:34;10.00;99.90
16200;DHT22;8207;52.494;4.654;2022-11-15T07:12:03;10.00;99.90
16200;DHT22;8207;52.494;4.654;2022-11-15T07:14:30;10.00;99.90
16200;DHT22;8207;52.494;4.654;2022-11-15T07:16:57;10.00;99.90
16200;DHT22;8207;52.494;4.654;2022-11-15T07:19:24;10.00;99.90
16200;DHT22;8207;52.494;4.654;2022-11-15T07:21:51;10.00;99.90
16200;DHT22;8207;52.494;4.654;2022-11-15T07:24:17;10.00;99.90
16200;DHT22;8207;52.494;4.654;2022-11-15T07:26:44;10.00;99.90
16200;DHT22;8207;52.494;4.654;2022-11-15T07:29:13;10.00;99.90
16200;DHT22;8207;52.494;4.654;2022-11-15T07:31:39;10.00;99.90
16200;DHT22;8207;52.494;4.654;2022-11-15T07:34:06;9.90;99.90
16200;DHT22;8207;52.494;4.654;2022-11-15T07:36:34;9.90;99.90
16200;DHT22;8207;52.494;4.654;2022-11-15T07:39:01;9.90;99.90
16200;DHT22;8207;52.494;4.654;2022-11-15T07:41:28;9.90;99.90
16200;DHT22;8207;52.494;4.654;2022-11-15T07:43:55;9.90;99.90
16200;DHT22;8207;52.494;4.654;2022-11-15T07:46:24;9.90;99.90
16200;DHT22;8207;52.494;4.654;2022-11-15T07:48:51;10.00;99.90
16200;DHT22;8207;52.494;4.654;2022-11-15T07:51:18;10.00;99.90
16200;DHT22;8207;52.494;4.654;2022-11-15T07:53:45;10.00;99.90
16200;DHT22;8207;52.494;4.654;2022-11-15T07:56:12;10.00;99.90
16200;DHT22;8207;52.494;4.654;2022-11-15T07:58:39;10.10;99.90
16200;DHT22;8207;52.494;4.654;2022-11-15T08:01:07;10.10;99.90
16200;DHT22;8207;52.494;4.654;2022-11-15T08:03:36;10.10;99.90
16200;DHT22;8207;52.494;4.654;2022-11-15T08:06:04;10.10;99.90
16200;DHT22;8207;52.494;4.654;2022-11-15T08:08:31;10.10;99.90
16200;DHT22;8207;52.494;4.654;2022-11-15T08:10:58;10.20;99.90
16200;DHT22;8207;52.494;4.654;2022-11-15T08:13:25;10.20;99.90
16200;DHT22;8207;52.494;4.654;2022-11-15T08:15:52;10.20;99.90
16200;DHT22;8207;52.494;4.654;2022-11-15T08:18:23;10.30;99.90
16200;DHT22;8207;52.494;4.654;2022-11-15T08:20:51;10.30;99.90
16200;DHT22;8207;52.494;4.654;2022-11-15T08:23:18;10.20;99.90
16200;DHT22;8207;52.494;4.654;2022-11-15T08:25:45;10.20;99.90
16200;DHT22;8207;52.494;4.654;2022-11-15T08:28:12;10.20;99.90
16200;DHT22;8207;52.494;4.654;2022-11-15T08:30:40;10.10;99.90
16200;DHT22;8207;52.494;4.654;2022-11-15T08:33:11;10.10;99.90
16200;DHT22;8207;52.494;4.654;2022-11-15T08:35:38;10.10;99.90
16200;DHT22;8207;52.494;4.654;2022-11-15T08:38:07;10.10;99.90
16200;DHT22;8207;52.494;4.654;2022-11-15T08:40:35;10.10;99.90
16200;DHT22;8207;52.494;4.654;2022-11-15T08:43:02;10.10;99.90
16200;DHT22;8207;52.494;4.654;2022-11-15T08:45:29;10.20;99.90
16200;DHT22;8207;52.494;4.654;2022-11-15T08:47:57;10.10;99.90
16200;DHT22;8207;52.494;4.654;2022-11-15T08:50:23;10.20;99.90
16200;DHT22;8207;52.494;4.654;2022-11-15T08:52:50;10.20;99.90
16200;DHT22;8207;52.494;4.654;2022-11-15T08:55:19;10.20;99.90
16200;DHT22;8207;52.494;4.654;2022-11-15T08:57:45;10.20;99.90
16200;DHT22;8207;52.494;4.654;2022-11-15T09:00:13;10.30;99.90
16200;DHT22;8207;52.494;4.654;2022-11-15T09:02:40;10.30;99.90
16200;DHT22;8207;52.494;4.654;2022-11-15T09:05:08;10.40;99.90
16200;DHT22;8207;52.494;4.654;2022-11-15T09:07:35;10.40;99.90
16200;DHT22;8207;52.494;4.654;2022-11-15T09:10:02;10.40;99.90
16200;DHT22;8207;52.494;4.654;2022-11-15T09:12:30;10.40;99.90
16200;DHT22;8207;52.494;4.654;2022-11-15T09:14:57;10.40;99.90
16200;DHT22;8207;52.494;4.654;2022-11-15T09:17:24;10.50;99.90
16200;DHT22;8207;52.494;4.654;2022-11-15T09:19:51;10.50;99.90
16200;DHT22;8207;52.494;4.654;2022-11-15T09:22:18;10.50;99.90
16200;DHT22;8207;52.494;4.654;2022-11-15T09:24:45;10.60;99.90
16200;DHT22;8207;52.494;4.654;2022-11-15T09:27:12;10.60;99.90
16200;DHT22;8207;52.494;4.654;2022-11-15T09:29:40;10.70;99.90
16200;DHT22;8207;52.494;4.654;2022-11-15T09:32:07;10.70;99.90
16200;DHT22;8207;52.494;4.654;2022-11-15T09:34:34;10.80;99.90
16200;DHT22;8207;52.494;4.654;2022-11-15T09:37:00;10.90;99.90
16200;DHT22;8207;52.494;4.654;2022-11-15T09:39:27;10.90;99.90
16200;DHT22;8207;52.494;4.654;2022-11-15T09:42:03;11.00;99.90
16200;DHT22;8207;52.494;4.654;2022-11-15T09:44:47;11.10;99.90
16200;DHT22;8207;52.494;4.654;2022-11-15T09:47:36;11.10;99.90
16200;DHT22;8207;52.494;4.654;2022-11-15T09:50:10;11.20;99.90
16200;DHT22;8207;52.494;4.654;2022-11-15T09:52:41;11.20;99.90
16200;DHT22;8207;52.494;4.654;2022-11-15T09:55:09;11.20;99.90
16200;DHT22;8207;52.494;4.654;2022-11-15T09:57:41;11.20;99.90
16200;DHT22;8207;52.494;4.654;2022-11-15T10:00:15;11.20;99.90
16200;DHT22;8207;52.494;4.654;2022-11-15T10:02:56;11.30;99.90
16200;DHT22;8207;52.494;4.654;2022-11-15T10:05:26;11.20;99.90
16200;DHT22;8207;52.494;4.654;2022-11-15T10:07:59;11.30;99.90
16200;DHT22;8207;52.494;4.654;2022-11-15T10:10:35;11.30;99.90
16200;DHT22;8207;52.494;4.654;2022-11-15T10:13:03;11.30;99.90
16200;DHT22;8207;52.494;4.654;2022-11-15T10:15:31;11.30;99.90
16200;DHT22;8207;52.494;4.654;2022-11-15T10:18:08;11.40;99.90
16200;DHT22;8207;52.494;4.654;2022-11-15T10:20:46;11.40;99.90
16200;DHT22;8207;52.494;4.654;2022-11-15T10:23:16;11.40;99.90
16200;DHT22;8207;52.494;4.654;2022-11-15T10:25:43;11.50;99.90
16200;DHT22;8207;52.494;4.654;2022-11-15T10:28:14;11.60;99.90
16200;DHT22;8207;52.494;4.654;2022-11-15T10:30:44;11.60;99.90
16200;DHT22;8207;52.494;4.654;2022-11-15T10:33:17;11.60;99.90
16200;DHT22;8207;52.494;4.654;2022-11-15T10:35:45;11.60;99.90
16200;DHT22;8207;52.494;4.654;2022-11-15T10:38:12;11.70;99.90
16200;DHT22;8207;52.494;4.654;2022-11-15T10:40:41;11.70;99.90
16200;DHT22;8207;52.494;4.654;2022-11-15T10:43:17;11.80;99.90
16200;DHT22;8207;52.494;4.654;2022-11-15T10:45:46;11.80;99.90
16200;DHT22;8207;52.494;4.654;2022-11-15T10:48:24;11.90;99.90
16200;DHT22;8207;52.494;4.654;2022-11-15T10:50:52;11.90;99.90
16200;DHT22;8207;52.494;4.654;2022-11-15T10:53:24;12.00;99.90
16200;DHT22;8207;52.494;4.654;2022-11-15T10:55:53;11.90;99.90
16200;DHT22;8207;52.494;4.654;2022-11-15T10:58:29;12.00;99.90
16200;DHT22;8207;52.494;4.654;2022-11-15T11:01:12;12.00;99.90
16200;DHT22;8207;52.494;4.654;2022-11-15T11:03:40;12.00;99.90
16200;DHT22;8207;52.494;4.654;2022-11-15T11:06:10;12.00;99.90
16200;DHT22;8207;52.494;4.654;2022-11-15T11:08:38;12.00;99.90
16200;DHT22;8207;52.494;4.654;2022-11-15T11:11:06;12.10;99.90
16200;DHT22;8207;52.494;4.654;2022-11-15T11:13:35;12.10;99.90
16200;DHT22;8207;52.494;4.654;2022-11-15T11:16:34;12.20;99.90
16200;DHT22;8207;52.494;4.654;2022-11-15T11:19:21;12.20;99.90
16200;DHT22;8207;52.494;4.654;2022-11-15T11:21:56;12.20;99.90
16200;DHT22;8207;52.494;4.654;2022-11-15T11:24:32;12.20;99.90
16200;DHT22;8207;52.494;4.654;2022-11-15T11:27:13;12.10;99.90
16200;DHT22;8207;52.494;4.654;2022-11-15T11:29:52;12.10;99.90
16200;DHT22;8207;52.494;4.654;2022-11-15T11:32:36;12.10;99.90
16200;DHT22;8207;52.494;4.654;2022-11-15T11:35:11;12.10;99.90
16200;DHT22;8207;52.494;4.654;2022-11-15T11:37:45;12.00;99.90
16200;DHT22;8207;52.494;4.654;2022-11-15T11:40:22;12.00;99.90
16200;DHT22;8207;52.494;4.654;2022-11-15T11:42:56;12.10;99.90
16200;DHT22;8207;52.494;4.654;2022-11-15T11:48:23;12.10;99.90
16200;DHT22;8207;52.494;4.654;2022-11-15T11:50:55;12.20;99.90
16200;DHT22;8207;52.494;4.654;2022-11-15T11:53:27;12.30;99.90
16200;DHT22;8207;52.494;4.654;2022-11-15T11:55:58;12.30;99.90
16200;DHT22;8207;52.494;4.654;2022-11-15T11:58:34;12.30;99.90
16200;DHT22;8207;52.494;4.654;2022-11-15T12:01:08;12.30;99.90
16200;DHT22;8207;52.494;4.654;2022-11-15T12:03:40;12.30;99.90
16200;DHT22;8207;52.494;4.654;2022-11-15T12:06:19;12.40;99.90
16200;DHT22;8207;52.494;4.654;2022-11-15T12:08:52;12.50;99.90
16200;DHT22;8207;52.494;4.654;2022-11-15T12:11:23;12.50;99.90
16200;DHT22;8207;52.494;4.654;2022-11-15T12:13:57;12.50;99.90
16200;DHT22;8207;52.494;4.654;2022-11-15T12:16:27;12.60;99.90
16200;DHT22;8207;52.494;4.654;2022-11-15T12:18:59;12.60;99.90
16200;DHT22;8207;52.494;4.654;2022-11-15T12:21:33;12.60;99.90
16200;DHT22;8207;52.494;4.654;2022-11-15T12:24:04;12.60;99.90
16200;DHT22;8207;52.494;4.654;2022-11-15T12:26:35;12.70;99.90
16200;DHT22;8207;52.494;4.654;2022-11-15T12:29:08;12.60;99.90
16200;DHT22;8207;52.494;4.654;2022-11-15T12:31:39;12.60;99.90
16200;DHT22;8207;52.494;4.654;2022-11-15T12:34:29;12.60;99.90
16200;DHT22;8207;52.494;4.654;2022-11-15T12:36:56;12.60;99.90
16200;DHT22;8207;52.494;4.654;2022-11-15T12:42:40;12.50;99.90
16200;DHT22;8207;52.494;4.654;2022-11-15T12:45:26;12.50;99.90
16200;DHT22;8207;52.494;4.654;2022-11-15T12:47:53;12.50;99.90
16200;DHT22;8207;52.494;4.654;2022-11-15T12:53:28;12.40;99.90
16200;DHT22;8207;52.494;4.654;2022-11-15T12:56:21;12.40;99.90
16200;DHT22;8207;52.494;4.654;2022-11-15T12:58:51;12.40;99.90
16200;DHT22;8207;52.494;4.654;2022-11-15T13:01:55;12.40;99.90
16200;DHT22;8207;52.494;4.654;2022-11-15T13:04:25;12.40;99.90
16200;DHT22;8207;52.494;4.654;2022-11-15T13:06:54;12.40;99.90
16200;DHT22;8207;52.494;4.654;2022-11-15T13:09:54;12.40;99.90
16200;DHT22;8207;52.494;4.654;2022-11-15T13:12:56;12.40;99.90
16200;DHT22;8207;52.494;4.654;2022-11-15T13:15:54;12.40;99.90
16200;DHT22;8207;52.494;4.654;2022-11-15T13:18:35;12.50;99.90
16200;DHT22;8207;52.494;4.654;2022-11-15T13:21:05;12.50;99.90
16200;DHT22;8207;52.494;4.654;2022-11-15T13:23:54;12.40;99.90
16200;DHT22;8207;52.494;4.654;2022-11-15T13:26:23;12.50;99.90
16200;DHT22;8207;52.494;4.654;2022-11-15T13:28:51;12.40;99.90
16200;DHT22;8207;52.494;4.654;2022-11-15T13:31:34;12.50;99.90
16200;DHT22;8207;52.494;4.654;2022-11-15T13:34:12;12.50;99.90
16200;DHT22;8207;52.494;4.654;2022-11-15T13:36:40;12.40;99.90
16200;DHT22;8207;52.494;4.654;2022-11-15T13:39:14;12.50;99.90
16200;DHT22;8207;52.494;4.654;2022-11-15T13:41:51;12.40;99.90
16200;DHT22;8207;52.494;4.654;2022-11-15T13:44:20;12.40;99.90
16200;DHT22;8207;52.494;4.654;2022-11-15T13:46:47;12.40;99.90
16200;DHT22;8207;52.494;4.654;2022-11-15T13:49:14;12.40;99.90
16200;DHT22;8207;52.494;4.654;2022-11-15T13:51:43;12.40;99.90
16200;DHT22;8207;52.494;4.654;2022-11-15T13:54:20;12.50;99.90
16200;DHT22;8207;52.494;4.654;2022-11-15T13:56:53;12.40;99.90
16200;DHT22;8207;52.494;4.654;2022-11-15T13:59:25;12.40;99.90
16200;DHT22;8207;52.494;4.654;2022-11-15T14:01:53;12.50;99.90
16200;DHT22;8207;52.494;4.654;2022-11-15T14:04:24;12.40;99.90
16200;DHT22;8207;52.494;4.654;2022-11-15T14:06:53;12.50;99.90
16200;DHT22;8207;52.494;4.654;2022-11-15T14:09:39;12.50;99.90
16200;DHT22;8207;52.494;4.654;2022-11-15T14:12:31;12.50;99.90
16200;DHT22;8207;52.494;4.654;2022-11-15T14:14:59;12.50;99.90
16200;DHT22;8207;52.494;4.654;2022-11-15T14:17:35;12.40;99.90
16200;DHT22;8207;52.494;4.654;2022-11-15T14:20:19;12.40;99.90
16200;DHT22;8207;52.494;4.654;2022-11-15T14:22:53;12.40;99.90
16200;DHT22;8207;52.494;4.654;2022-11-15T14:25:22;12.40;99.90
16200;DHT22;8207;52.494;4.654;2022-11-15T14:28:12;12.30;99.90
16200;DHT22;8207;52.494;4.654;2022-11-15T14:30:40;12.30;99.90
16200;DHT22;8207;52.494;4.654;2022-11-15T14:33:20;12.30;99.90
16200;DHT22;8207;52.494;4.654;2022-11-15T14:35:48;12.30;99.90
16200;DHT22;8207;52.494;4.654;2022-11-15T14:38:15;12.30;99.90
16200;DHT22;8207;52.494;4.654;2022-11-15T14:40:42;12.30;99.90
16200;DHT22;8207;52.494;4.654;2022-11-15T14:43:11;12.30;99.90
16200;DHT22;8207;52.494;4.654;2022-11-15T14:45:38;12.30;99.90
16200;DHT22;8207;52.494;4.654;2022-11-15T14:48:06;12.30;99.90
16200;DHT22;8207;52.494;4.654;2022-11-15T14:50:34;12.30;99.90
16200;DHT22;8207;52.494;4.654;2022-11-15T14:53:01;12.30;99.90
16200;DHT22;8207;52.494;4.654;2022-11-15T14:55:29;12.30;99.90
16200;DHT22;8207;52.494;4.654;2022-11-15T14:57:58;12.30;99.90
16200;DHT22;8207;52.494;4.654;2022-11-15T15:00:26;12.20;99.90
16200;DHT22;8207;52.494;4.654;2022-11-15T15:02:54;12.20;99.90
16200;DHT22;8207;52.494;4.654;2022-11-15T15:05:23;12.20;99.90
16200;DHT22;8207;52.494;4.654;2022-11-15T15:07:51;12.20;99.90
16200;DHT22;8207;52.494;4.654;2022-11-15T15:10:18;12.30;99.90
16200;DHT22;8207;52.494;4.654;2022-11-15T15:12:45;12.30;99.90
16200;DHT22;8207;52.494;4.654;2022-11-15T15:15:15;12.30;99.90
16200;DHT22;8207;52.494;4.654;2022-11-15T15:17:44;12.30;99.90
16200;DHT22;8207;52.494;4.654;2022-11-15T15:20:11;12.30;99.90
16200;DHT22;8207;52.494;4.654;2022-11-15T15:22:38;12.20;99.90
16200;DHT22;8207;52.494;4.654;2022-11-15T15:25:21;12.20;99.90
16200;DHT22;8207;52.494;4.654;2022-11-15T15:27:48;12.10;99.90
16200;DHT22;8207;52.494;4.654;2022-11-15T15:30:15;12.10;99.90
16200;DHT22;8207;52.494;4.654;2022-11-15T15:32:43;12.10;99.90
16200;DHT22;8207;52.494;4.654;2022-11-15T15:35:12;12.10;99.90
16200;DHT22;8207;52.494;4.654;2022-11-15T15:37:40;12.10;99.90
16200;DHT22;8207;52.494;4.654;2022-11-15T15:40:12;12.10;99.90
16200;DHT22;8207;52.494;4.654;2022-11-15T15:42:39;12.10;99.90
16200;DHT22;8207;52.494;4.654;2022-11-15T15:45:07;12.10;99.90
16200;DHT22;8207;52.494;4.654;2022-11-15T15:47:34;12.00;99.90
16200;DHT22;8207;52.494;4.654;2022-11-15T15:50:03;12.10;99.90
16200;DHT22;8207;52.494;4.654;2022-11-15T15:52:30;12.10;99.90
16200;DHT22;8207;52.494;4.654;2022-11-15T15:54:57;12.10;99.90
16200;DHT22;8207;52.494;4.654;2022-11-15T15:57:24;12.10;99.90
16200;DHT22;8207;52.494;4.654;2022-11-15T15:59:52;12.00;99.90
16200;DHT22;8207;52.494;4.654;2022-11-15T16:02:19;12.00;99.90
16200;DHT22;8207;52.494;4.654;2022-11-15T16:04:46;12.00;99.90
16200;DHT22;8207;52.494;4.654;2022-11-15T16:07:17;12.00;99.90
16200;DHT22;8207;52.494;4.654;2022-11-15T16:09:47;12.00;99.90
16200;DHT22;8207;52.494;4.654;2022-11-15T16:12:31;12.00;99.90
16200;DHT22;8207;52.494;4.654;2022-11-15T16:14:58;12.00;99.90
16200;DHT22;8207;52.494;4.654;2022-11-15T16:17:26;12.00;99.90
16200;DHT22;8207;52.494;4.654;2022-11-15T16:19:53;12.10;99.90
16200;DHT22;8207;52.494;4.654;2022-11-15T16:22:22;12.00;99.90
16200;DHT22;8207;52.494;4.654;2022-11-15T16:24:48;12.10;99.90